createdAt,value
2022-12-08T00:00:03.065Z,1007.06
2022-12-08T00:05:03.260Z,1007.1
2022-12-08T00:10:14.456Z,1007.2
2022-12-08T00:15:03.228Z,1007.23
2022-12-08T15:20:03.436Z,1007.59
2022-12-08T15:25:03.039Z,1007.57
2022-12-08T15:30:03.467Z,1007.52
2022-12-08T15:35:02.974Z,1007.61
2022-12-08T15:40:03.624Z,1007.54
2022-12-08T15:45:02.964Z,1007.48
2022-12-08T15:50:03.469Z,1007.48
2022-12-08T15:55:03.006Z,1007.37
2022-12-08T16:00:03.613Z,1007.26
2022-12-08T16:10:03.268Z,1007.16
2022-12-08T16:20:03.514Z,1007.07
2022-12-08T16:25:17.600Z,1006.93
2022-12-08T16:30:03.056Z,1006.91
2022-12-08T16:35:03.230Z,1006.85
2022-12-08T16:40:03.275Z,1006.82
2022-12-08T16:45:03.113Z,1006.45
2022-12-08T16:50:03.077Z,1006.45
2022-12-08T16:55:03.307Z,1006.19
2022-12-08T17:00:03.354Z,1006.38
2022-12-08T17:05:03.304Z,1006.16
2022-12-08T17:10:03.204Z,1006.38
2022-12-08T17:15:03.339Z,1006.38
2022-12-08T17:20:03.259Z,1006.26
2022-12-08T17:25:02.931Z,1006.19
2022-12-08T17:30:03.535Z,1006.25
2022-12-08T17:35:03.494Z,1006.29
2022-12-08T17:40:03.386Z,1006.4
2022-12-08T17:45:03.254Z,1006.52
2022-12-08T17:50:03.314Z,1006.16
2022-12-08T17:55:02.928Z,1006.1
2022-12-08T18:00:03.315Z,1006.03
2022-12-08T18:05:02.952Z,1006.21
2022-12-08T18:10:03.210Z,1006.13
2022-12-08T18:15:02.959Z,1005.93
2022-12-08T18:20:03.296Z,1005.81
2022-12-08T18:25:02.997Z,1005.67
2022-12-08T18:30:03.397Z,1005.63
2022-12-08T18:35:02.886Z,1005.56
2022-12-08T18:40:03.354Z,1005.42
2022-12-08T18:45:02.983Z,1005.2
2022-12-08T18:50:03.292Z,1005.13
2022-12-08T18:55:07.195Z,1005.1
2022-12-08T19:00:03.413Z,1005.01
2022-12-08T19:05:04.004Z,1004.95
2022-12-08T19:10:03.136Z,1004.94
2022-12-08T19:15:03.222Z,1004.89
2022-12-08T19:20:03.262Z,1004.82
2022-12-08T19:25:02.894Z,1004.7
2022-12-08T19:30:03.027Z,1004.6
2022-12-08T19:35:02.989Z,1004.65
2022-12-08T19:40:03.135Z,1004.47
2022-12-08T19:45:02.979Z,1004.32
2022-12-08T19:50:03.245Z,1004.26
2022-12-08T19:55:02.946Z,1004.16
2022-12-08T20:00:03.040Z,1004.07
2022-12-08T20:05:02.974Z,1004.07
2022-12-08T20:10:03.127Z,1004.13
2022-12-08T20:15:03.058Z,1004.17
2022-12-08T20:20:06.980Z,1004.26
2022-12-08T20:25:03.003Z,1004.16
2022-12-08T20:30:03.037Z,1004.12
2022-12-08T20:35:03.290Z,1004.15
2022-12-08T20:40:03.075Z,1004.18
2022-12-08T20:45:04.295Z,1004.12
2022-12-08T20:50:03.434Z,1004.26
2022-12-08T20:55:04.161Z,1004.26
2022-12-08T21:00:03.385Z,1004.31
2022-12-08T21:05:03.125Z,1004.32
2022-12-08T21:10:03.188Z,1004.4
2022-12-08T21:15:02.984Z,1004.45
2022-12-08T21:20:03.111Z,1004.71
2022-12-08T21:25:03.012Z,1004.61
2022-12-08T21:30:03.216Z,1004.55
2022-12-08T21:35:02.998Z,1004.74
2022-12-08T21:40:03.160Z,1004.84
2022-12-08T21:45:03.163Z,1004.95
2022-12-08T21:50:03.690Z,1005.05
2022-12-08T21:55:02.974Z,1005.26
2022-12-08T22:00:03.354Z,1005.34
2022-12-08T22:05:03.157Z,1005.34
2022-12-08T22:10:03.147Z,1005.43
2022-12-08T22:15:03.206Z,1005.63
2022-12-08T22:20:08.504Z,1005.66
2022-12-08T22:25:02.991Z,1005.68
2022-12-08T22:30:03.256Z,1005.72
2022-12-08T22:35:04.157Z,1005.79
2022-12-08T22:40:04.484Z,1005.86
2022-12-08T22:45:02.956Z,1005.97
2022-12-08T22:50:03.193Z,1005.95
2022-12-08T22:55:02.983Z,1005.82
2022-12-08T23:00:03.514Z,1005.83
2022-12-08T23:05:03.366Z,1005.79
2022-12-08T23:10:03.175Z,1005.83
2022-12-08T23:15:09.231Z,1005.87
2022-12-08T23:20:03.192Z,1005.85
2022-12-08T23:25:03.165Z,1005.88
2022-12-08T23:30:03.049Z,1005.93
2022-12-08T23:35:03.006Z,1005.91
2022-12-08T23:40:03.117Z,1005.93
2022-12-08T23:45:02.968Z,1005.98
2022-12-08T23:50:03.372Z,1006.03
2022-12-08T23:55:03.162Z,1006.03
